Time;durP1;ratioP1;P1;durP2;ratioP2;P2;SDS_P1;SDS_P2;PMS_P1;PMS_P2;Temp;Humidity;BMP_temperature;BMP_pressure;BME280_temperature;BME280_humidity;BME280_pressure;Samples;Min_cycle;Max_cycle;Signal;HPM_P1;HPM_P2
2023/06/06 15:41:26;;;;;;;3.50;1.70;;;;;;;26.79;35.88;101786.06;5160796;23;20046;-96
2023/06/06 15:43:55;;;;;;;3.22;1.90;;;;;;;26.87;34.01;101784.91;4979686;28;20054;-96
2023/06/06 15:46:20;;;;;;;;;;;;;;;27.02;36.41;101778.22;4976520;28;20368;-96
2023/06/06 15:48:46;;;;;;;3.10;1.60;;;;;;;27.01;34.88;101772.91;4974039;28;19964;-96
2023/06/06 15:51:11;;;;;;;2.33;1.60;;;;;;;27.08;35.51;101771.78;4975158;28;20030;-96
2023/06/06 15:53:37;;;;;;;3.90;1.73;;;;;;;27.15;32.61;101772.50;4975860;28;20042;-95
2023/06/06 15:56:04;;;;;;;3.08;1.60;;;;;;;27.00;34.42;101773.84;4993813;28;20053;-96
2023/06/06 15:58:33;;;;;;;2.70;1.70;;;;;;;27.23;34.61;101771.31;5006297;28;20037;-96
2023/06/06 16:00:58;;;;;;;2.15;1.50;;;;;;;27.35;32.79;101755.84;5008914;28;20030;-96
2023/06/06 16:03:24;;;;;;;3.38;1.67;;;;;;;27.37;34.27;101759.31;5012580;28;20019;-96
2023/06/06 16:05:50;;;;;;;2.10;1.75;;;;;;;27.20;31.96;101755.38;5011740;22;20038;-61
2023/06/06 16:08:16;;;;;;;3.53;1.70;;;;;;;27.00;30.94;101760.47;5008330;22;20046;-96
2023/06/06 16:10:41;;;;;;;3.13;1.60;;;;;;;26.81;33.96;101758.34;4982990;28;20175;-96
2023/06/06 16:13:07;;;;;;;2.30;1.70;;;;;;;26.52;35.45;101754.69;4984541;28;20058;-96
2023/06/06 16:15:33;;;;;;;2.55;1.75;;;;;;;26.63;34.66;101756.19;4984831;28;20043;-96
2023/06/06 16:17:58;;;;;;;5.50;2.70;;;;;;;26.61;36.10;101750.88;4972066;23;20342;-59
2023/06/06 16:20:24;;;;;;;2.47;1.60;;;;;;;26.68;36.11;101756.97;4951083;28;20126;-58
2023/06/06 16:22:49;;;;;;;2.65;1.63;;;;;;;26.78;34.92;101745.09;4955358;28;20047;-58
2023/06/06 16:25:14;;;;;;;2.60;1.83;;;;;;;26.84;35.74;101747.56;4955551;28;20402;-58
2023/06/06 16:27:40;;;;;;;2.80;1.70;;;;;;;26.97;35.08;101752.53;4956285;28;20387;-58
2023/06/06 16:30:07;;;;;;;3.05;1.67;;;;;;;26.99;35.02;101750.69;4955585;28;20290;-58
2023/06/06 16:32:32;;;;;;;3.92;1.90;;;;;;;27.04;35.30;101754.97;4955474;28;20038;-58
2023/06/06 16:34:58;;;;;;;3.03;2.00;;;;;;;27.05;35.69;101747.81;4954062;28;20039;-59
2023/06/06 16:37:23;;;;;;;3.42;2.08;;;;;;;27.07;35.48;101754.00;4955370;28;20031;-58
2023/06/06 16:39:48;;;;;;;4.20;2.30;;;;;;;26.88;38.79;101749.22;4955965;28;20501;-58
2023/06/06 16:42:14;;;;;;;3.60;2.10;;;;;;;26.63;38.91;101748.16;4958318;28;20495;-58
2023/06/06 16:44:39;;;;;;;3.80;2.15;;;;;;;26.52;41.52;101746.69;4956351;28;20320;-58
2023/06/06 16:47:05;;;;;;;2.38;1.77;;;;;;;26.57;40.33;101748.34;4953089;28;20075;-58
2023/06/06 16:49:30;;;;;;;2.78;2.08;;;;;;;26.52;39.77;101749.34;4952806;28;20049;-58
2023/06/06 16:51:56;;;;;;;3.50;2.17;;;;;;;26.34;39.43;101745.41;4953974;28;20498;-58
2023/06/06 16:54:25;;;;;;;3.28;2.25;;;;;;;26.20;43.17;101755.59;4977872;23;20045;-96
2023/06/06 16:59:38;;;;;;;4.00;2.22;;;;;;;26.00;43.03;101742.81;5010069;28;19913;-96
2023/06/06 17:02:14;;;;;;;4.13;2.13;;;;;;;25.76;44.39;101750.47;5003495;28;20014;-96
2023/06/06 17:04:40;;;;;;;3.90;2.38;;;;;;;25.66;43.90;101746.28;4978721;23;20197;-62
2023/06/06 17:07:05;;;;;;;3.85;2.28;;;;;;;25.47;43.83;101753.88;4962029;28;20109;-61
2023/06/06 17:09:31;;;;;;;3.65;2.13;;;;;;;25.56;44.31;101758.13;4962432;28;20034;-61
2023/06/06 17:11:56;;;;;;;3.87;2.43;;;;;;;25.62;43.56;101755.28;4962996;28;20424;-61
2023/06/06 17:14:22;;;;;;;4.15;2.47;;;;;;;25.59;43.22;101755.38;4963134;28;20282;-61
2023/06/06 17:16:48;;;;;;;3.38;2.22;;;;;;;25.44;44.42;101749.50;4962286;28;20035;-61
2023/06/06 17:19:13;;;;;;;4.15;2.33;;;;;;;25.33;45.04;101756.88;4956500;28;20041;-61
2023/06/06 17:24:14;;;;;;;4.22;2.47;;;;;;;25.30;45.44;101756.91;4890502;23;20571;-61
2023/06/06 17:26:41;;;;;;;3.58;2.35;;;;;;;25.29;43.73;101755.19;5143558;23;20074;-61
2023/06/06 17:36:57;;;;;;;3.88;2.60;;;;;;;25.33;46.22;101760.44;5329166;23;20036;-61
2023/06/06 17:39:23;;;;;;;4.80;2.83;;;;;;;25.27;44.79;101759.66;4993006;28;20057;-61
2023/06/06 17:41:48;;;;;;;3.63;2.30;;;;;;;25.15;46.31;101763.50;4991347;28;20053;-61
2023/06/06 17:44:14;;;;;;;4.15;2.60;;;;;;;25.14;46.51;101762.63;4991077;28;20030;-61
2023/06/06 17:47:02;;;;;;;3.65;2.42;;;;;;;25.18;46.88;101766.09;4990317;28;20413;-61
2023/06/06 17:49:28;;;;;;;4.35;2.30;;;;;;;25.01;45.70;101766.44;4928560;28;20040;-61
2023/06/06 17:51:53;;;;;;;3.47;2.50;;;;;;;24.98;46.78;101771.84;4980668;28;20038;-61
2023/06/06 17:54:19;;;;;;;5.07;2.58;;;;;;;24.82;46.62;101774.88;4987644;28;20808;-61
2023/06/06 17:57:03;;;;;;;3.90;2.80;;;;;;;24.58;46.93;101770.03;4991734;28;20049;-61
2023/06/06 17:59:29;;;;;;;3.72;2.55;;;;;;;24.40;47.87;101774.78;4993345;28;20034;-61
2023/06/06 18:01:54;;;;;;;3.92;3.30;;;;;;;24.27;48.55;101771.50;4992813;28;20040;-61
2023/06/06 18:04:20;;;;;;;5.32;3.13;;;;;;;24.09;48.83;101772.69;4992184;28;20116;-62
2023/06/06 18:06:45;;;;;;;4.60;2.53;;;;;;;24.09;49.88;101775.34;4991787;28;20512;-61
2023/06/06 18:09:12;;;;;;;5.15;2.50;;;;;;;23.97;49.35;101780.91;4992209;28;20038;-61
2023/06/06 18:11:40;;;;;;;5.25;3.33;;;;;;;23.87;49.40;101776.63;4993116;28;20509;-61
2023/06/06 18:14:06;;;;;;;3.88;2.60;;;;;;;23.69;50.30;101783.13;4990956;28;20085;-61
2023/06/06 18:16:32;;;;;;;3.70;2.88;;;;;;;23.56;50.43;101779.78;4979708;28;20046;-61
2023/06/06 18:18:57;;;;;;;4.20;2.78;;;;;;;23.51;50.84;101782.50;4989622;28;20042;-61
2023/06/06 18:21:24;;;;;;;4.70;2.60;;;;;;;23.51;51.93;101778.97;4988744;28;20026;-60
2023/06/06 18:23:50;;;;;;;4.50;2.88;;;;;;;23.48;51.54;101777.25;4988278;28;20050;-61
2023/06/06 18:26:16;;;;;;;4.78;2.72;;;;;;;23.36;52.05;101777.41;4991291;28;20528;-61
2023/06/06 18:28:41;;;;;;;3.78;2.60;;;;;;;23.25;52.80;101777.56;4989244;28;20049;-61
2023/06/06 18:31:06;;;;;;;4.43;2.72;;;;;;;23.25;52.30;101781.09;4988457;28;20049;-57
2023/06/06 18:33:32;;;;;;;5.30;3.10;;;;;;;23.18;52.25;101775.91;4990526;28;20022;-58
2023/06/06 18:35:57;;;;;;;5.55;2.70;;;;;;;23.09;52.39;101791.03;4991653;28;20033;-58
2023/06/06 18:38:23;;;;;;;3.97;2.88;;;;;;;23.00;53.30;101783.22;4990791;28;20057;-58
2023/06/06 18:40:48;;;;;;;4.32;2.95;;;;;;;22.97;53.23;101779.69;4987731;28;20034;-58
2023/06/06 18:43:15;;;;;;;5.13;3.15;;;;;;;22.88;53.84;101786.91;4987111;28;20038;-58
2023/06/06 18:45:41;;;;;;;4.85;2.95;;;;;;;22.80;53.75;101793.22;4984577;28;20398;-58
2023/06/06 18:48:07;;;;;;;5.88;2.60;;;;;;;22.78;52.87;101789.69;4988755;28;20030;-58
2023/06/06 18:50:32;;;;;;;4.47;3.15;;;;;;;22.71;54.38;101800.38;4985324;28;20493;-58
2023/06/06 18:52:58;;;;;;;3.97;2.78;;;;;;;22.61;54.88;101798.75;4984646;28;20049;-58
2023/06/06 18:55:23;;;;;;;4.20;3.05;;;;;;;22.45;55.62;101797.13;4986432;28;20486;-57
2023/06/06 18:57:50;;;;;;;4.32;3.00;;;;;;;22.31;55.77;101795.47;4990781;28;20454;-58
2023/06/06 19:00:15;;;;;;;4.55;3.00;;;;;;;22.25;56.06;101803.50;4994745;28;20034;-57
2023/06/06 19:03:39;;;;;;;4.57;3.47;;;;;;;22.17;55.40;101803.59;4984016;28;20148;-57
2023/06/06 19:10:05;;;;;;;4.75;3.30;;;;;;;22.02;56.40;101811.69;4990342;28;20100;-58
2023/06/06 19:12:31;;;;;;;5.53;3.20;;;;;;;21.87;57.71;101815.34;5057503;23;20204;-58
2023/06/06 19:15:00;;;;;;;4.43;3.20;;;;;;;21.91;57.15;101816.19;4995950;28;20030;-57
2023/06/06 19:17:26;;;;;;;5.45;3.45;;;;;;;21.89;57.52;101822.38;4995560;28;20096;-57
2023/06/06 19:19:51;;;;;;;5.20;3.17;;;;;;;21.81;57.56;101818.94;4995721;28;20046;-57
2023/06/06 19:22:17;;;;;;;5.97;3.10;;;;;;;21.82;57.63;101823.31;4998007;28;20034;-57
2023/06/06 19:24:42;;;;;;;5.00;3.10;;;;;;;21.76;57.70;101833.13;4978495;28;20175;-58
2023/06/06 19:27:07;;;;;;;3.70;2.63;;;;;;;21.85;56.77;101838.34;4998879;28;20124;-57
2023/06/06 19:29:33;;;;;;;5.13;2.80;;;;;;;21.90;54.71;101836.56;4997328;28;20049;-57
2023/06/06 19:31:58;;;;;;;4.13;3.30;;;;;;;21.81;54.44;101836.59;4996565;28;20405;-58
2023/06/06 19:34:24;;;;;;;4.43;2.70;;;;;;;21.64;55.57;101844.69;4998259;28;20037;-57
2023/06/06 19:36:50;;;;;;;3.40;2.42;;;;;;;21.63;56.23;101832.31;4996912;28;20045;-57
2023/06/06 19:39:15;;;;;;;3.60;2.70;;;;;;;21.67;56.05;101845.53;4999819;28;20390;-57
2023/06/06 19:41:40;;;;;;;3.88;2.65;;;;;;;21.73;52.82;101843.75;4997971;28;20042;-57
2023/06/06 19:44:06;;;;;;;4.38;2.60;;;;;;;21.70;55.78;101840.22;4999063;28;20417;-57
2023/06/06 19:46:32;;;;;;;4.38;2.97;;;;;;;21.73;55.42;101849.06;4978663;28;20030;-57
2023/06/06 19:48:57;;;;;;;3.67;2.70;;;;;;;21.67;55.17;101848.19;4998803;28;20087;-57
2023/06/06 19:51:22;;;;;;;5.63;2.60;;;;;;;21.61;56.17;101850.00;4998678;28;20034;-57
2023/06/06 19:53:49;;;;;;;3.92;2.80;;;;;;;21.49;55.30;101861.53;4997897;28;20120;-57
2023/06/06 19:56:14;;;;;;;4.05;2.40;;;;;;;21.43;55.58;101857.13;4998905;28;20041;-57
2023/06/06 19:58:39;;;;;;;4.80;3.03;;;;;;;21.39;56.19;101858.03;4996829;28;20034;-57
2023/06/06 20:01:05;;;;;;;4.97;2.90;;;;;;;21.34;55.75;101862.50;4997917;28;20025;-57
2023/06/06 20:03:30;;;;;;;4.13;2.83;;;;;;;21.32;57.04;101865.16;4997524;28;20464;-57
2023/06/06 20:05:56;;;;;;;5.32;3.22;;;;;;;21.20;58.01;101867.84;4998947;28;20042;-57
2023/06/06 20:08:24;;;;;;;4.18;2.92;;;;;;;21.22;58.08;101871.41;4995707;28;20120;-57
2023/06/06 20:10:50;;;;;;;5.18;3.10;;;;;;;21.14;58.61;101875.84;4997773;28;20499;-57
2023/06/06 20:13:15;;;;;;;4.70;3.35;;;;;;;21.00;58.39;101874.13;5000504;28;20101;-58
2023/06/06 20:15:41;;;;;;;4.45;2.90;;;;;;;20.97;59.06;101871.50;5001233;28;20038;-57
2023/06/06 20:18:07;;;;;;;4.90;3.03;;;;;;;20.87;59.29;101879.47;5003126;28;20053;-57
2023/06/06 20:20:35;;;;;;;5.30;3.42;;;;;;;20.82;59.65;101890.94;5003649;28;20034;-57
2023/06/06 20:23:01;;;;;;;5.28;3.08;;;;;;;20.79;59.34;101898.91;5000239;28;20123;-57
2023/06/06 20:25:26;;;;;;;4.63;3.08;;;;;;;20.72;57.81;101893.63;5001500;28;20112;-57
2023/06/06 20:27:51;;;;;;;4.80;2.92;;;;;;;20.62;59.42;101901.56;5002250;28;20045;-57
2023/06/06 20:30:17;;;;;;;4.50;3.03;;;;;;;20.57;60.19;101905.09;5002218;28;20117;-57
2023/06/06 20:32:42;;;;;;;4.47;3.00;;;;;;;20.54;59.90;101908.63;5002887;28;20493;-57
2023/06/06 20:35:08;;;;;;;6.00;3.30;;;;;;;20.51;59.58;101900.69;5002999;28;20488;-57
2023/06/06 20:37:34;;;;;;;4.00;2.90;;;;;;;20.43;58.11;101910.38;5003444;28;20038;-57
2023/06/06 20:42:43;;;;;;;4.32;3.00;;;;;;;20.24;60.19;101905.09;5002353;28;21189;-58
2023/06/06 20:45:08;;;;;;;4.40;2.90;;;;;;;20.18;60.05;101917.44;5000771;28;20030;-57
2023/06/06 20:47:34;;;;;;;4.25;2.90;;;;;;;20.17;60.93;101915.69;5002241;28;20033;-57
2023/06/06 20:50:00;;;;;;;4.43;2.80;;;;;;;20.08;60.36;101909.47;5001271;28;20065;-57
2023/06/06 20:52:27;;;;;;;4.15;2.75;;;;;;;20.07;59.92;101914.78;5003414;28;20041;-57
2023/06/06 20:54:52;;;;;;;3.50;2.92;;;;;;;20.01;60.49;101909.47;5002966;28;20048;-57
2023/06/06 20:57:17;;;;;;;4.53;3.08;;;;;;;19.85;61.45;101914.75;5003279;28;20535;-56
2023/06/06 20:59:43;;;;;;;5.13;2.67;;;;;;;19.86;61.38;101916.50;4999361;28;20042;-56
2023/06/06 21:02:08;;;;;;;5.53;3.00;;;;;;;19.85;61.22;101920.03;5000071;28;20421;-57
2023/06/06 21:04:33;;;;;;;3.97;2.80;;;;;;;19.74;61.18;101929.66;5002277;28;20026;-57
2023/06/06 21:06:59;;;;;;;4.80;2.92;;;;;;;19.72;61.12;101928.78;5003207;28;20087;-57
2023/06/06 21:09:24;;;;;;;4.90;2.50;;;;;;;19.69;61.21;101932.28;5003082;28;20038;-57
2023/06/06 21:11:52;;;;;;;4.32;3.00;;;;;;;19.72;61.57;101928.78;5000891;28;20093;-57
2023/06/06 21:14:18;;;;;;;4.30;2.90;;;;;;;19.67;61.28;101919.94;5001481;28;20099;-57
2023/06/06 21:16:43;;;;;;;4.85;3.00;;;;;;;19.65;61.12;101922.56;5000012;28;20482;-57
2023/06/06 21:19:09;;;;;;;4.45;3.00;;;;;;;19.54;61.33;101925.19;4999360;28;20025;-57
2023/06/06 21:21:35;;;;;;;4.40;2.88;;;;;;;19.44;61.98;101921.63;4997332;28;20034;-57
2023/06/06 21:24:01;;;;;;;4.10;2.53;;;;;;;19.35;60.01;101928.63;5000044;28;20034;-56
2023/06/06 21:26:27;;;;;;;5.57;3.00;;;;;;;19.32;62.67;101933.91;4998655;28;20546;-56
2023/06/06 21:28:52;;;;;;;4.78;2.78;;;;;;;19.22;61.37;101938.25;5002090;28;20030;-57
2023/06/06 21:31:17;;;;;;;5.03;3.00;;;;;;;19.22;61.76;101933.88;5001251;28;20121;-57
2023/06/06 21:33:42;;;;;;;5.38;3.00;;;;;;;19.18;62.60;101940.00;5003231;28;20045;-57
2023/06/06 21:36:08;;;;;;;4.55;3.10;;;;;;;19.18;63.01;101931.22;4999909;28;20037;-57
2023/06/06 21:38:33;;;;;;;4.32;3.03;;;;;;;19.05;63.43;101920.56;5000951;28;20124;-57
2023/06/06 21:40:58;;;;;;;4.47;2.85;;;;;;;18.98;62.86;101916.13;5001498;28;20069;-57
2023/06/06 21:43:24;;;;;;;4.95;3.30;;;;;;;18.96;63.21;101916.97;4978766;28;20034;-57
2023/06/06 21:45:49;;;;;;;3.63;2.78;;;;;;;18.96;63.65;101911.69;5001731;28;20045;-57
2023/06/06 21:48:14;;;;;;;5.63;3.15;;;;;;;18.87;63.75;101921.34;4998702;28;20041;-57
2023/06/06 21:50:40;;;;;;;4.05;2.80;;;;;;;18.89;62.55;101935.44;4997174;28;20046;-57
2023/06/06 21:53:05;;;;;;;4.53;2.80;;;;;;;18.87;63.80;101933.66;5000476;28;20040;-57
2023/06/06 21:55:31;;;;;;;4.82;2.67;;;;;;;18.86;63.68;101932.78;5001085;28;20041;-57
2023/06/06 21:57:56;;;;;;;4.53;3.10;;;;;;;18.72;63.77;101942.31;4984296;28;20129;-57
2023/06/06 22:00:22;;;;;;;5.55;3.17;;;;;;;18.68;62.38;101935.25;5001753;28;20045;-57
2023/06/06 22:02:48;;;;;;;5.45;3.22;;;;;;;18.65;64.39;101935.22;5003193;28;20156;-57
2023/06/06 22:05:13;;;;;;;5.32;3.25;;;;;;;18.67;63.88;101928.19;5001307;28;20125;-56
2023/06/06 22:07:42;;;;;;;4.93;3.10;;;;;;;18.69;64.41;101929.09;4999733;28;20456;-57
2023/06/06 22:10:07;;;;;;;4.77;3.13;;;;;;;18.70;64.55;101928.25;5000615;28;20515;-57
2023/06/06 22:12:33;;;;;;;5.07;3.15;;;;;;;18.67;63.56;101933.47;5000180;28;20289;-57
2023/06/06 22:14:58;;;;;;;4.68;3.22;;;;;;;18.58;63.39;101943.09;5001159;28;20511;-57
2023/06/06 22:17:24;;;;;;;4.13;2.83;;;;;;;18.37;62.21;101946.44;5000480;28;20065;-57
2023/06/06 22:19:50;;;;;;;6.07;3.67;;;;;;;18.26;63.68;101942.81;5001448;28;20493;-57
2023/06/06 22:22:15;;;;;;;5.05;3.15;;;;;;;18.19;63.85;101944.53;5000975;28;20049;-57
2023/06/06 22:24:40;;;;;;;4.53;3.05;;;;;;;18.17;63.28;101943.59;5004830;28;20034;-57
2023/06/06 22:27:07;;;;;;;4.60;2.90;;;;;;;18.17;63.97;101935.69;4985890;28;20117;-57
2023/06/06 22:29:33;;;;;;;4.00;2.90;;;;;;;18.13;64.44;101933.00;4999895;28;20096;-57
2023/06/06 22:31:58;;;;;;;5.03;3.03;;;;;;;18.09;64.18;101926.84;5000617;28;20121;-57
2023/06/06 22:34:23;;;;;;;4.78;3.08;;;;;;;18.02;64.01;101932.94;5005368;28;20140;-57
2023/06/06 22:36:49;;;;;;;4.00;3.13;;;;;;;17.94;64.56;101937.22;5000907;28;20131;-57
2023/06/06 22:39:14;;;;;;;4.25;3.08;;;;;;;17.98;64.51;101933.75;5001821;28;20037;-57
2023/06/06 22:41:40;;;;;;;4.53;2.95;;;;;;;17.88;64.14;101930.09;5005540;28;20100;-57
2023/06/06 22:44:05;;;;;;;4.97;3.15;;;;;;;17.78;65.31;101939.66;4981655;28;20458;-57
2023/06/06 22:46:30;;;;;;;5.47;3.20;;;;;;;17.79;65.03;101928.25;5005117;28;20034;-57
2023/06/06 22:48:56;;;;;;;5.25;3.20;;;;;;;17.75;64.15;101936.97;5004841;28;20531;-57
2023/06/06 22:51:21;;;;;;;5.32;3.50;;;;;;;17.79;64.97;101938.78;5005696;28;20556;-57
2023/06/06 22:53:47;;;;;;;4.57;3.10;;;;;;;17.64;64.41;101931.59;5006031;28;20029;-57
2023/06/06 22:56:13;;;;;;;4.40;2.95;;;;;;;17.54;65.21;101935.88;5005276;28;20034;-60
2023/06/06 22:58:39;;;;;;;5.30;3.30;;;;;;;17.53;65.21;101931.44;5004535;28;20058;-60
2023/06/06 23:01:04;;;;;;;4.43;3.05;;;;;;;17.47;63.59;101939.28;5005638;28;20401;-60
2023/06/06 23:03:29;;;;;;;4.60;3.22;;;;;;;17.51;65.42;101940.19;5005364;28;20041;-60
2023/06/06 23:05:55;;;;;;;5.70;3.30;;;;;;;17.53;64.97;101942.00;5005466;28;20635;-60
2023/06/06 23:08:20;;;;;;;5.22;3.10;;;;;;;17.49;64.66;101931.41;5004983;28;20398;-60
2023/06/06 23:10:46;;;;;;;4.72;3.20;;;;;;;17.40;65.28;101926.91;5002720;28;20057;-60
2023/06/06 23:13:11;;;;;;;4.40;3.10;;;;;;;17.36;65.40;101925.97;5003668;28;20053;-60
2023/06/06 23:15:38;;;;;;;6.45;3.25;;;;;;;17.34;65.33;101924.19;5003951;28;20408;-60
2023/06/06 23:18:05;;;;;;;5.13;2.97;;;;;;;17.28;65.86;101932.00;5004327;28;20129;-60
2023/06/06 23:20:30;;;;;;;4.35;3.03;;;;;;;17.23;66.06;101928.44;5003224;28;20041;-60
2023/06/06 23:22:56;;;;;;;5.30;3.28;;;;;;;17.18;66.43;101928.38;5003890;28;20041;-60
2023/06/06 23:25:21;;;;;;;4.97;3.15;;;;;;;17.15;65.71;101929.22;4980065;28;20062;-60
2023/06/06 23:27:46;;;;;;;5.25;3.08;;;;;;;17.09;65.74;101921.25;5004457;28;20065;-56
2023/06/06 23:30:13;;;;;;;4.38;3.05;;;;;;;17.02;66.67;101929.91;5004631;28;20091;-57
2023/06/06 23:32:39;;;;;;;5.57;3.20;;;;;;;16.94;66.91;101924.50;5001915;28;20038;-57
2023/06/06 23:35:05;;;;;;;5.30;3.53;;;;;;;16.86;67.09;101928.78;5000460;28;20041;-56
2023/06/06 23:37:30;;;;;;;5.78;3.45;;;;;;;16.85;67.14;101927.88;5004449;28;20037;-57
2023/06/06 23:39:55;;;;;;;4.85;3.22;;;;;;;16.86;67.42;101919.13;5003085;28;20121;-56
2023/06/06 23:42:20;;;;;;;4.57;3.20;;;;;;;16.83;66.98;101928.72;5004211;28;20400;-56
2023/06/06 23:44:46;;;;;;;5.25;3.40;;;;;;;16.76;67.59;101927.75;5002961;28;20038;-57
2023/06/06 23:47:12;;;;;;;5.13;3.30;;;;;;;16.73;68.44;101927.69;5003529;28;20419;-57
2023/06/06 23:49:38;;;;;;;4.78;3.33;;;;;;;16.72;68.02;101936.44;5004494;28;20041;-57
2023/06/06 23:52:04;;;;;;;5.38;3.20;;;;;;;16.72;67.89;101933.81;5004709;28;20034;-56
2023/06/06 23:54:29;;;;;;;4.93;3.30;;;;;;;16.66;68.13;101936.34;5004877;28;20044;-57
2023/06/06 23:56:54;;;;;;;5.28;3.40;;;;;;;16.63;68.51;101939.81;5003236;28;20033;-57
2023/06/06 23:59:20;;;;;;;5.18;3.13;;;;;;;16.64;68.80;101938.06;5004843;28;20046;-57
